Time;durP1;ratioP1;P1;durP2;ratioP2;P2;SDS_P1;SDS_P2;PMS_P1;PMS_P2;Temp;Humidity;BMP_temperature;BMP_pressure;BME280_temperature;BME280_humidity;BME280_pressure;Samples;Min_cycle;Max_cycle;Signal;HPM_P1;HPM_P2
2024/04/13 19:42:24;;;;;;;21.83;16.48;;;;;;;16.81;45.90;94669.16;5430145;26;20304;-74
2024/04/13 19:44:49;;;;;;;10.43;7.00;;;;;;;17.32;44.35;94669.72;5394939;26;20141;-74
2024/04/13 19:47:14;;;;;;;7.85;7.10;;;;;;;17.46;43.60;94673.66;5395195;26;20008;-74
2024/04/13 19:49:40;;;;;;;9.05;6.25;;;;;;;17.57;43.73;94674.00;5396219;26;20533;-75
2024/04/13 19:52:05;;;;;;;9.48;6.93;;;;;;;17.79;43.06;94668.19;5423343;26;20018;-75
2024/04/13 19:54:31;;;;;;;8.13;6.60;;;;;;;17.85;42.63;94674.88;5431588;26;20014;-74
2024/04/13 19:56:57;;;;;;;7.40;6.53;;;;;;;17.66;42.93;94684.63;5430443;26;20342;-75
2024/04/13 19:59:22;;;;;;;7.95;6.45;;;;;;;17.49;43.14;94677.59;5431409;26;20003;-75
2024/04/13 20:01:47;;;;;;;8.52;5.95;;;;;;;17.31;43.32;94682.38;5431388;26;20024;-75
2024/04/13 20:04:13;;;;;;;7.72;6.65;;;;;;;17.32;43.84;94688.53;5431732;26;20393;-75
2024/04/13 20:06:38;;;;;;;11.63;7.25;;;;;;;17.49;44.50;94688.34;5431887;26;19996;-75
2024/04/13 20:09:04;;;;;;;7.53;6.57;;;;;;;17.60;43.42;94689.44;5432048;26;19991;-75
2024/04/13 20:11:30;;;;;;;9.32;6.30;;;;;;;17.62;42.88;94681.84;5431378;26;19996;-74
2024/04/13 20:13:55;;;;;;;8.80;6.70;;;;;;;17.63;42.91;94680.72;5432890;26;20009;-75
2024/04/13 20:19:04;;;;;;;7.93;6.65;;;;;;;17.67;42.98;94683.53;5431848;26;20010;-75
2024/04/13 20:21:30;;;;;;;10.52;6.00;;;;;;;17.76;43.07;94682.28;5431265;26;19991;-74
2024/04/13 20:23:56;;;;;;;7.50;6.15;;;;;;;17.78;42.65;94677.38;5432123;26;20000;-75
2024/04/13 20:26:21;;;;;;;9.65;6.10;;;;;;;17.41;43.22;94667.69;5431594;26;19995;-74
2024/04/13 20:28:47;;;;;;;11.20;6.00;;;;;;;17.23;43.89;94679.78;5432019;26;20625;-74
2024/04/13 20:31:12;;;;;;;12.05;6.55;;;;;;;17.25;43.56;94683.72;5431294;26;20706;-75
2024/04/13 20:33:39;;;;;;;10.80;6.78;;;;;;;17.36;43.42;94679.47;5431956;26;20441;-75
2024/04/13 20:36:05;;;;;;;10.65;6.22;;;;;;;17.34;43.76;94697.84;5431934;26;19999;-75
2024/04/13 20:38:30;;;;;;;8.98;6.40;;;;;;;17.30;43.26;94669.28;5431022;26;20015;-75
2024/04/13 20:40:56;;;;;;;9.80;5.97;;;;;;;17.27;43.92;94686.06;5447215;26;20002;-75
2024/04/13 20:43:21;;;;;;;11.90;6.63;;;;;;;17.15;43.54;94684.94;5467312;26;20012;-75
2024/04/13 20:45:46;;;;;;;7.10;6.47;;;;;;;17.10;43.80;94693.19;5466746;26;20009;-75
2024/04/13 20:48:12;;;;;;;10.90;5.70;;;;;;;17.21;43.63;94703.53;5467760;26;20326;-75
2024/04/13 20:50:37;;;;;;;7.97;6.88;;;;;;;17.33;43.41;94700.88;5467021;26;19994;-75
2024/04/13 20:53:03;;;;;;;6.43;5.82;;;;;;;17.41;43.48;94703.44;5457038;26;20002;-75
2024/04/13 20:55:28;;;;;;;8.25;6.57;;;;;;;17.50;43.47;94695.28;5452134;26;20063;-73
2024/04/13 20:57:54;;;;;;;11.75;6.88;;;;;;;17.49;43.11;94691.81;5452446;26;20007;-74
2024/04/13 21:00:20;;;;;;;8.88;5.80;;;;;;;17.69;43.08;94698.22;5452203;26;20063;-75
2024/04/13 21:02:45;;;;;;;8.13;5.78;;;;;;;17.62;42.82;94684.53;5452011;26;19998;-74
2024/04/13 21:05:11;;;;;;;8.77;6.25;;;;;;;17.59;42.26;94694.06;5452121;26;20006;-75
2024/04/13 21:07:36;;;;;;;13.07;5.60;;;;;;;17.67;42.24;94692.38;5452625;26;20435;-75
2024/04/13 21:10:04;;;;;;;7.13;6.40;;;;;;;17.59;42.36;94694.06;5451857;26;19995;-74
2024/04/13 21:12:29;;;;;;;9.30;5.90;;;;;;;17.62;42.15;94697.97;5449362;26;19995;-75
2024/04/13 21:14:54;;;;;;;6.45;5.05;;;;;;;17.58;41.91;94692.50;5449949;26;20449;-74
2024/04/13 21:17:20;;;;;;;7.60;5.60;;;;;;;17.62;42.15;94692.59;5450672;26;20025;-75
2024/04/13 21:19:45;;;;;;;8.02;6.45;;;;;;;17.51;43.27;94675.31;5450635;26;19995;-75
2024/04/13 21:22:11;;;;;;;9.55;4.95;;;;;;;17.60;41.93;94690.22;5449556;26;20024;-75
2024/04/13 21:24:37;;;;;;;11.60;5.03;;;;;;;17.51;42.37;94681.50;5450964;26;19991;-75
2024/04/13 21:27:03;;;;;;;8.80;5.75;;;;;;;17.50;43.28;94676.47;5451880;26;20006;-75
2024/04/13 21:29:29;;;;;;;7.80;5.43;;;;;;;17.47;43.71;94679.81;5450872;26;20353;-75
2024/04/13 21:31:54;;;;;;;6.15;5.25;;;;;;;17.42;43.83;94675.44;5451574;26;19991;-75
2024/04/13 21:34:21;;;;;;;10.07;5.82;;;;;;;17.27;43.93;94664.56;5450823;26;19995;-74
2024/04/13 21:36:47;;;;;;;10.82;6.15;;;;;;;17.33;44.51;94673.97;5450391;26;19995;-75
2024/04/13 21:39:12;;;;;;;7.05;5.28;;;;;;;17.17;43.46;94666.56;5450692;26;20045;-75
2024/04/13 21:41:38;;;;;;;8.15;5.82;;;;;;;17.27;43.60;94676.09;5451931;26;20006;-75
2024/04/13 21:44:03;;;;;;;8.60;4.68;;;;;;;17.31;42.90;94687.75;5456165;26;19994;-75
2024/04/13 21:46:29;;;;;;;6.05;5.55;;;;;;;17.14;43.81;94674.50;5455623;26;19995;-75
2024/04/13 21:48:55;;;;;;;8.15;5.32;;;;;;;17.18;43.95;94684.25;5455366;26;19995;-75
